Time;durP1;ratioP1;P1;durP2;ratioP2;P2;SDS_P1;SDS_P2;PMS_P1;PMS_P2;Temp;Humidity;BMP_temperature;BMP_pressure;BME280_temperature;BME280_humidity;BME280_pressure;Samples;Min_cycle;Max_cycle;Signal;HPM_P1;HPM_P2
2021/10/15 00:01:16;;;;;;;2.13;1.30;;;7.00;98.00;;;;;;5032621;28;20801;-65
2021/10/15 00:03:43;;;;;;;1.40;1.17;;;7.00;98.00;;;;;;5032844;28;20487;-65
2021/10/15 00:06:10;;;;;;;1.73;1.43;;;7.00;98.00;;;;;;5032412;28;20503;-64
2021/10/15 00:08:37;;;;;;;1.60;1.20;;;6.90;98.00;;;;;;5032274;28;20509;-64
2021/10/15 00:11:05;;;;;;;1.30;1.10;;;7.00;98.00;;;;;;5032246;28;20487;-65
2021/10/15 00:13:32;;;;;;;1.20;1.10;;;7.20;98.00;;;;;;5032255;28;20870;-65
2021/10/15 00:15:59;;;;;;;1.20;1.03;;;7.00;98.00;;;;;;5032491;28;20521;-64
2021/10/15 00:18:26;;;;;;;1.20;1.10;;;6.80;98.00;;;;;;5014523;28;20512;-64
2021/10/15 00:20:53;;;;;;;1.20;1.07;;;6.50;98.00;;;;;;5031992;28;20488;-64
2021/10/15 00:23:20;;;;;;;1.30;1.10;;;6.30;98.00;;;;;;5031847;28;20512;-65
2021/10/15 00:25:49;;;;;;;1.20;1.20;;;6.30;98.00;;;;;;5031845;28;20497;-64
2021/10/15 00:28:17;;;;;;;1.20;1.20;;;6.30;98.00;;;;;;4997681;28;20535;-64
2021/10/15 00:30:44;;;;;;;1.20;1.00;;;6.40;98.00;;;;;;5031692;28;20525;-64
2021/10/15 00:33:11;;;;;;;1.30;1.20;;;6.40;98.00;;;;;;5031673;28;20529;-64
2021/10/15 00:35:42;;;;;;;6.30;1.90;;;6.40;98.00;;;;;;5031741;28;20524;-65
2021/10/15 00:38:09;;;;;;;1.23;1.13;;;6.50;98.00;;;;;;5031677;28;20517;-65
2021/10/15 00:40:36;;;;;;;2.33;1.50;;;6.50;98.00;;;;;;5031950;28;20628;-65
2021/10/15 00:43:03;;;;;;;1.20;1.00;;;6.40;98.00;;;;;;5031751;28;20505;-64
2021/10/15 00:45:31;;;;;;;1.30;1.20;;;6.20;98.00;;;;;;5013961;28;20533;-64
2021/10/15 00:47:58;;;;;;;1.20;1.00;;;6.20;98.00;;;;;;5031559;28;21037;-65
2021/10/15 00:50:26;;;;;;;1.20;1.10;;;6.20;98.00;;;;;;5013542;28;20477;-64
2021/10/15 00:52:53;;;;;;;1.20;1.00;;;6.20;98.00;;;;;;5031622;28;21018;-64
2021/10/15 00:55:20;;;;;;;1.20;1.10;;;6.20;98.00;;;;;;5031530;28;20510;-65
2021/10/15 00:57:47;;;;;;;1.20;1.00;;;6.10;98.00;;;;;;5031387;28;21072;-64
2021/10/15 01:00:14;;;;;;;1.20;1.00;;;6.10;98.00;;;;;;5030652;28;20459;-64
2021/10/15 01:02:44;;;;;;;1.40;1.10;;;6.00;98.00;;;;;;5031452;28;20487;-64
2021/10/15 01:05:12;;;;;;;1.30;1.10;;;6.00;98.00;;;;;;5030902;28;20494;-64
2021/10/15 01:07:39;;;;;;;1.50;1.17;;;6.00;98.00;;;;;;5031386;28;20453;-64
2021/10/15 01:10:07;;;;;;;1.20;1.10;;;6.00;98.00;;;;;;5031198;28;20490;-64
2021/10/15 01:12:36;;;;;;;2.90;1.30;;;6.00;98.00;;;;;;5013480;28;20556;-65
2021/10/15 01:15:04;;;;;;;1.20;1.10;;;6.10;98.00;;;;;;5031373;28;20482;-64
2021/10/15 01:17:32;;;;;;;1.73;1.63;;;6.20;98.00;;;;;;5031218;28;20461;-65
2021/10/15 01:20:01;;;;;;;1.50;1.20;;;6.00;98.00;;;;;;5031450;28;20462;-65
2021/10/15 01:22:29;;;;;;;1.30;1.17;;;5.80;98.00;;;;;;5031186;28;20466;-65
2021/10/15 01:24:57;;;;;;;1.20;1.00;;;5.70;98.00;;;;;;5031266;28;20562;-64
2021/10/15 01:27:25;;;;;;;1.20;1.10;;;5.60;98.00;;;;;;5031054;28;20506;-64
2021/10/15 01:29:53;;;;;;;3.63;1.53;;;5.60;98.00;;;;;;5031091;28;20459;-64
2021/10/15 01:32:21;;;;;;;2.60;1.30;;;5.70;98.00;;;;;;5030396;28;20482;-65
2021/10/15 01:34:48;;;;;;;1.80;1.30;;;5.80;98.00;;;;;;5031080;28;20795;-65
2021/10/15 01:37:17;;;;;;;1.50;1.23;;;5.90;98.00;;;;;;5013091;28;20456;-64
2021/10/15 01:39:44;;;;;;;1.20;1.00;;;6.00;98.00;;;;;;5031015;28;20924;-64
2021/10/15 01:42:53;;;;;;;1.47;1.20;;;5.90;98.00;;;;;;5013413;28;20486;-64
2021/10/15 01:44:58;;;;;;;1.47;1.20;;;5.70;98.00;;;;;;5030645;28;20958;-64
2021/10/15 01:47:25;;;;;;;1.20;1.10;;;5.70;98.00;;;;;;5030849;28;20455;-64
2021/10/15 01:49:53;;;;;;;1.20;1.00;;;5.70;98.00;;;;;;5013347;28;20464;-64
2021/10/15 01:52:22;;;;;;;1.37;1.20;;;5.50;98.00;;;;;;5030651;28;20482;-65
2021/10/15 01:54:49;;;;;;;1.20;1.07;;;5.60;98.00;;;;;;5030787;28;20454;-64
2021/10/15 01:57:17;;;;;;;1.30;1.10;;;5.60;98.00;;;;;;5030688;28;20459;-65
2021/10/15 01:59:44;;;;;;;1.87;1.13;;;5.50;98.00;;;;;;5030745;28;20503;-64
2021/10/15 02:02:11;;;;;;;1.20;1.10;;;5.50;98.00;;;;;;5030702;28;20488;-64
2021/10/15 02:04:38;;;;;;;1.20;1.00;;;5.60;98.00;;;;;;5030571;28;20502;-64
2021/10/15 02:07:05;;;;;;;1.20;1.00;;;5.60;98.00;;;;;;5030784;28;20494;-64
2021/10/15 02:09:34;;;;;;;1.20;1.00;;;5.70;98.00;;;;;;5013299;28;20736;-64
2021/10/15 02:12:02;;;;;;;1.20;1.00;;;5.80;98.00;;;;;;5032557;28;20552;-64
2021/10/15 02:14:29;;;;;;;1.20;1.00;;;5.80;98.00;;;;;;5034627;28;20454;-65
2021/10/15 02:16:57;;;;;;;1.20;0.97;;;5.90;98.00;;;;;;5034380;28;20498;-64
2021/10/15 02:19:24;;;;;;;1.20;0.93;;;5.90;98.00;;;;;;5016753;28;20449;-64
2021/10/15 02:21:51;;;;;;;1.20;1.00;;;5.60;98.00;;;;;;5016452;28;20457;-64
2021/10/15 02:24:20;;;;;;;1.70;1.10;;;5.40;98.00;;;;;;5034195;28;20868;-65
2021/10/15 02:26:49;;;;;;;1.50;1.30;;;5.20;98.00;;;;;;5034387;28;20579;-65
2021/10/15 02:29:17;;;;;;;1.57;1.47;;;5.50;98.00;;;;;;5034148;28;20468;-64
2021/10/15 02:31:44;;;;;;;2.40;1.33;;;5.50;98.00;;;;;;5016561;28;20523;-65
2021/10/15 02:34:12;;;;;;;1.40;1.10;;;5.50;98.00;;;;;;5034190;28;20548;-64
2021/10/15 02:36:39;;;;;;;1.43;1.30;;;5.50;98.00;;;;;;5034269;28;20471;-64
2021/10/15 02:39:06;;;;;;;1.30;1.10;;;5.50;98.00;;;;;;5034409;28;20820;-65
2021/10/15 02:41:37;;;;;;;1.40;1.20;;;5.40;98.00;;;;;;5034155;28;20479;-64
2021/10/15 02:44:05;;;;;;;1.37;1.30;;;5.60;98.00;;;;;;5017348;28;20544;-64
2021/10/15 02:46:32;;;;;;;1.20;1.00;;;5.50;98.00;;;;;;5033807;28;20514;-64
2021/10/15 02:48:59;;;;;;;1.20;0.90;;;5.60;98.00;;;;;;5034031;28;20507;-65
2021/10/15 02:51:26;;;;;;;1.53;1.33;;;5.60;98.00;;;;;;5033726;28;21064;-64
2021/10/15 02:53:53;;;;;;;1.20;1.00;;;5.50;98.00;;;;;;5033795;28;20848;-65
2021/10/15 02:56:21;;;;;;;1.20;1.00;;;5.50;98.00;;;;;;5033648;28;20457;-65
2021/10/15 02:58:48;;;;;;;1.20;1.00;;;5.40;98.00;;;;;;5033587;28;20453;-64
2021/10/15 03:01:16;;;;;;;1.67;1.40;;;5.40;98.00;;;;;;5033715;28;20492;-65
2021/10/15 03:03:44;;;;;;;1.20;1.10;;;5.50;98.00;;;;;;5033080;28;20498;-64
2021/10/15 03:06:11;;;;;;;1.20;0.97;;;5.70;98.00;;;;;;5015940;28;20447;-64
2021/10/15 03:08:38;;;;;;;1.20;1.00;;;5.50;98.00;;;;;;5033433;28;20472;-64
2021/10/15 03:11:05;;;;;;;1.20;1.00;;;5.40;98.00;;;;;;5033515;28;20518;-65
2021/10/15 03:13:32;;;;;;;1.20;1.00;;;5.40;98.00;;;;;;5033181;28;20524;-65
2021/10/15 03:15:59;;;;;;;1.20;1.00;;;5.50;98.00;;;;;;5033467;28;20825;-64
2021/10/15 03:18:28;;;;;;;1.20;0.90;;;5.60;98.00;;;;;;5033166;28;20518;-64
2021/10/15 03:20:55;;;;;;;1.20;1.03;;;5.60;98.00;;;;;;5033368;28;20467;-64
2021/10/15 03:23:22;;;;;;;1.20;1.00;;;5.50;98.00;;;;;;5032351;28;20459;-64
2021/10/15 03:25:49;;;;;;;1.20;0.90;;;5.40;98.00;;;;;;5015609;28;20452;-64
2021/10/15 03:28:16;;;;;;;1.20;0.93;;;5.40;98.00;;;;;;5032809;28;20471;-64
2021/10/15 03:30:43;;;;;;;1.60;1.50;;;5.20;98.00;;;;;;5033119;28;20487;-66
2021/10/15 03:33:10;;;;;;;1.20;1.00;;;5.30;98.00;;;;;;5032822;28;20516;-65
2021/10/15 03:35:38;;;;;;;1.30;1.00;;;5.20;98.00;;;;;;5032992;28;20491;-65
2021/10/15 03:38:05;;;;;;;1.67;1.30;;;5.10;98.00;;;;;;5032985;28;20552;-65
2021/10/15 03:40:33;;;;;;;1.20;0.90;;;5.10;98.00;;;;;;5032991;28;20843;-65
2021/10/15 03:43:00;;;;;;;1.53;1.30;;;5.30;98.00;;;;;;5032937;28;20487;-66
2021/10/15 03:45:27;;;;;;;1.20;1.00;;;5.50;98.00;;;;;;5033054;28;20463;-65
2021/10/15 03:47:54;;;;;;;1.63;1.23;;;5.40;98.00;;;;;;5032756;28;20490;-65
2021/10/15 03:50:21;;;;;;;1.80;1.20;;;5.30;98.00;;;;;;5032638;28;20467;-65
2021/10/15 03:52:49;;;;;;;1.20;1.10;;;5.10;98.00;;;;;;5031960;28;20664;-65
2021/10/15 03:55:16;;;;;;;1.60;1.20;;;4.90;98.00;;;;;;5032852;28;20550;-65
2021/10/15 03:57:43;;;;;;;1.30;1.30;;;4.70;98.00;;;;;;5032776;28;20459;-66
2021/10/15 04:00:13;;;;;;;3.73;1.50;;;4.60;98.00;;;;;;5015030;28;20805;-65
2021/10/15 04:02:40;;;;;;;1.50;1.13;;;4.60;98.00;;;;;;5015013;28;20459;-66
2021/10/15 04:05:09;;;;;;;1.30;1.20;;;4.70;98.00;;;;;;5032450;28;20499;-65
2021/10/15 04:07:36;;;;;;;1.20;1.20;;;4.70;98.00;;;;;;5032480;28;20468;-65
2021/10/15 04:10:06;;;;;;;7.07;1.50;;;4.70;98.00;;;;;;5032386;28;20502;-65
2021/10/15 04:12:33;;;;;;;1.30;1.10;;;4.70;98.00;;;;;;5032248;28;20490;-65
2021/10/15 04:15:00;;;;;;;2.03;1.60;;;4.80;98.00;;;;;;5032306;28;20487;-65
2021/10/15 04:17:27;;;;;;;1.80;1.27;;;4.70;98.00;;;;;;5032056;28;20950;-65
2021/10/15 04:19:54;;;;;;;2.53;1.30;;;4.60;98.00;;;;;;5032092;28;20491;-65
2021/10/15 04:22:24;;;;;;;1.77;1.27;;;4.50;98.00;;;;;;5032097;28;20488;-65
2021/10/15 04:24:51;;;;;;;1.20;1.00;;;4.50;98.00;;;;;;5032103;28;20454;-65
2021/10/15 04:27:19;;;;;;;1.20;1.10;;;4.60;98.00;;;;;;5031924;28;20458;-65
2021/10/15 04:29:46;;;;;;;1.20;0.90;;;4.60;98.00;;;;;;5032003;28;20532;-65
2021/10/15 04:32:13;;;;;;;1.30;1.03;;;4.50;98.00;;;;;;5031781;28;20515;-66
2021/10/15 04:34:40;;;;;;;1.20;1.00;;;4.60;98.00;;;;;;5031100;28;20515;-65
2021/10/15 04:37:07;;;;;;;1.20;1.20;;;4.40;98.00;;;;;;5031846;28;20468;-65
2021/10/15 04:39:34;;;;;;;1.73;1.07;;;4.50;98.00;;;;;;5031790;28;20460;-65
2021/10/15 04:42:01;;;;;;;1.80;1.43;;;4.50;98.00;;;;;;5031798;28;20454;-65
2021/10/15 04:44:29;;;;;;;1.20;1.00;;;4.40;98.00;;;;;;5031693;28;20533;-66
2021/10/15 04:46:56;;;;;;;1.20;1.00;;;4.30;98.00;;;;;;5031557;28;20456;-65
2021/10/15 04:49:26;;;;;;;1.20;1.03;;;4.30;98.00;;;;;;5031698;28;20452;-65
2021/10/15 04:51:53;;;;;;;1.20;1.00;;;4.20;98.00;;;;;;5031445;28;20462;-65
2021/10/15 04:54:20;;;;;;;1.20;1.00;;;4.10;98.00;;;;;;5031516;28;20871;-65
2021/10/15 04:56:47;;;;;;;1.37;1.20;;;4.20;98.00;;;;;;5031539;28;20460;-66
2021/10/15 04:59:14;;;;;;;1.30;1.10;;;4.30;98.00;;;;;;5031599;28;20462;-65
2021/10/15 05:01:42;;;;;;;1.40;1.20;;;4.40;98.00;;;;;;5013828;28;20455;-65
2021/10/15 05:04:09;;;;;;;1.77;1.10;;;4.50;98.00;;;;;;5031411;28;20493;-65
2021/10/15 05:06:36;;;;;;;3.10;1.53;;;4.50;98.00;;;;;;5013889;28;20456;-65
2021/10/15 05:09:25;;;;;;;1.83;1.17;;;4.50;98.00;;;;;;5013461;28;20468;-65
2021/10/15 05:11:52;;;;;;;1.20;1.00;;;4.50;98.00;;;;;;5031099;28;20460;-66
2021/10/15 05:14:19;;;;;;;1.20;1.10;;;4.70;98.00;;;;;;5013892;28;20448;-65
2021/10/15 05:16:47;;;;;;;3.23;1.50;;;4.50;98.00;;;;;;5031204;28;20514;-66
2021/10/15 05:19:14;;;;;;;1.20;1.00;;;4.30;98.00;;;;;;5031197;28;20482;-65
2021/10/15 05:21:41;;;;;;;1.30;1.17;;;4.30;98.00;;;;;;5031373;28;20459;-65
2021/10/15 05:24:09;;;;;;;1.37;1.23;;;4.20;98.00;;;;;;5031474;28;20517;-65
2021/10/15 05:26:36;;;;;;;1.30;1.00;;;4.10;98.00;;;;;;5031345;28;20460;-66
2021/10/15 05:29:04;;;;;;;1.80;1.17;;;4.30;98.00;;;;;;5013827;28;20500;-65
2021/10/15 05:31:31;;;;;;;2.90;1.30;;;4.50;98.00;;;;;;5031069;28;20829;-65
2021/10/15 05:34:00;;;;;;;1.30;1.10;;;4.50;98.00;;;;;;5013089;28;20538;-65
2021/10/15 05:36:27;;;;;;;1.20;1.00;;;4.30;98.00;;;;;;5030941;28;20460;-65
2021/10/15 05:38:53;;;;;;;2.03;1.10;;;4.30;98.00;;;;;;5030889;28;20459;-65
2021/10/15 05:41:20;;;;;;;1.20;1.00;;;4.40;98.00;;;;;;5030901;28;20472;-65
2021/10/15 05:43:47;;;;;;;1.60;1.20;;;4.50;98.00;;;;;;5030871;28;20456;-65
2021/10/15 05:46:14;;;;;;;2.23;1.20;;;4.50;98.00;;;;;;5014387;28;20463;-65
2021/10/15 05:48:41;;;;;;;1.53;1.10;;;4.40;98.00;;;;;;5017420;28;20502;-65
2021/10/15 05:51:10;;;;;;;1.20;1.00;;;4.60;98.00;;;;;;5017549;28;20468;-66
2021/10/15 05:53:37;;;;;;;1.20;1.00;;;4.70;98.00;;;;;;5034835;28;20619;-65
2021/10/15 05:56:21;;;;;;;1.20;1.10;;;4.60;98.00;;;;;;5017268;28;20463;-65
2021/10/15 05:58:50;;;;;;;1.30;1.10;;;4.40;98.00;;;;;;5034631;28;20975;-65
2021/10/15 06:01:19;;;;;;;1.20;1.00;;;4.40;98.00;;;;;;5017647;28;20463;-65
2021/10/15 06:03:52;;;;;;;1.20;1.10;;;4.60;98.00;;;;;;5034525;28;20542;-66
2021/10/15 06:14:38;;;;;;;1.63;1.37;;;5.20;98.00;;;;;;5034530;28;20630;-65
2021/10/15 06:17:08;;;;;;;1.20;1.00;;;4.90;98.00;;;;;;5034323;28;20461;-65
2021/10/15 06:19:43;;;;;;;1.40;1.10;;;4.90;98.00;;;;;;5034574;28;20454;-65
2021/10/15 06:22:12;;;;;;;2.90;1.67;;;4.80;98.00;;;;;;5034462;28;20456;-65
2021/10/15 06:24:40;;;;;;;1.30;1.20;;;4.70;98.00;;;;;;5034258;28;20538;-65
2021/10/15 06:27:07;;;;;;;1.20;1.10;;;4.70;98.00;;;;;;5033911;28;20906;-65
2021/10/15 06:29:34;;;;;;;1.20;0.90;;;4.70;98.00;;;;;;5034091;28;20464;-65
2021/10/15 06:32:01;;;;;;;2.03;1.30;;;4.90;98.00;;;;;;5034197;28;20489;-65
2021/10/15 06:34:28;;;;;;;4.50;1.37;;;5.10;98.00;;;;;;5034081;28;20534;-66
2021/10/15 06:36:55;;;;;;;1.20;1.00;;;5.00;98.00;;;;;;5034152;28;20792;-65
2021/10/15 06:39:23;;;;;;;1.67;1.57;;;4.90;98.00;;;;;;5034181;28;20494;-66
2021/10/15 06:41:50;;;;;;;1.33;1.20;;;4.90;98.00;;;;;;5034086;28;20513;-65
2021/10/15 06:44:17;;;;;;;1.30;1.10;;;5.00;98.00;;;;;;5034199;28;20873;-66
2021/10/15 06:46:44;;;;;;;2.07;1.30;;;5.00;98.00;;;;;;5034249;28;20496;-65
2021/10/15 06:49:11;;;;;;;1.70;1.20;;;5.10;98.00;;;;;;5034003;28;20511;-65
2021/10/15 06:51:42;;;;;;;1.70;1.23;;;5.10;98.00;;;;;;5033841;28;20530;-65
2021/10/15 06:54:09;;;;;;;4.03;1.20;;;5.30;98.00;;;;;;5033751;28;20539;-66
2021/10/15 06:56:39;;;;;;;1.20;1.07;;;5.30;98.00;;;;;;5033651;28;20526;-66
2021/10/15 06:59:06;;;;;;;1.50;1.30;;;5.40;98.00;;;;;;5032767;28;20542;-65
2021/10/15 07:01:33;;;;;;;3.77;1.80;;;5.50;98.00;;;;;;5033999;28;21025;-65
2021/10/15 07:04:01;;;;;;;1.40;1.10;;;5.60;98.00;;;;;;5033626;28;20455;-65
2021/10/15 07:06:30;;;;;;;1.20;1.00;;;5.40;98.00;;;;;;5016116;28;20457;-65
2021/10/15 07:08:57;;;;;;;1.40;1.20;;;5.40;98.00;;;;;;5033415;28;20456;-65
2021/10/15 07:11:24;;;;;;;1.30;1.10;;;5.40;98.00;;;;;;5033399;28;20464;-65
2021/10/15 07:13:52;;;;;;;1.30;1.20;;;5.60;98.00;;;;;;5033206;28;20514;-65
2021/10/15 07:16:19;;;;;;;1.20;1.10;;;5.50;98.00;;;;;;5033345;28;20541;-65
2021/10/15 07:18:46;;;;;;;1.97;1.50;;;5.60;98.00;;;;;;5015853;28;20989;-66
2021/10/15 07:21:13;;;;;;;2.80;1.73;;;5.60;98.00;;;;;;5015656;28;20543;-66
2021/10/15 07:23:40;;;;;;;1.73;1.50;;;5.60;98.00;;;;;;5015692;28;20523;-66
2021/10/15 07:26:07;;;;;;;2.07;1.50;;;5.60;98.00;;;;;;5015546;28;20552;-65
2021/10/15 07:28:34;;;;;;;1.50;1.20;;;5.60;98.00;;;;;;5032892;28;20526;-66
2021/10/15 07:31:03;;;;;;;1.40;1.30;;;5.60;98.00;;;;;;5033129;28;20510;-65
2021/10/15 07:33:30;;;;;;;1.70;1.30;;;5.50;98.00;;;;;;5032880;28;21062;-66
2021/10/15 07:35:57;;;;;;;1.43;1.43;;;5.40;98.00;;;;;;5032981;28;20458;-65
2021/10/15 07:38:24;;;;;;;1.40;1.30;;;5.50;98.00;;;;;;5032868;28;20519;-65
2021/10/15 07:40:51;;;;;;;1.20;1.00;;;5.60;98.00;;;;;;5032796;28;21036;-65
2021/10/15 07:43:19;;;;;;;4.90;1.43;;;5.50;98.00;;;;;;5015461;28;20609;-65
2021/10/15 07:45:46;;;;;;;1.73;1.37;;;5.60;98.00;;;;;;5032907;28;20458;-65
2021/10/15 07:48:14;;;;;;;1.43;1.13;;;5.80;98.00;;;;;;5032739;28;20484;-65
2021/10/15 07:50:41;;;;;;;1.20;0.90;;;5.90;98.00;;;;;;5033017;28;20867;-66
2021/10/15 07:53:08;;;;;;;1.77;1.40;;;6.10;98.00;;;;;;5032499;28;20523;-67
2021/10/15 07:55:35;;;;;;;1.20;1.00;;;6.40;98.00;;;;;;5032526;28;20509;-65
2021/10/15 07:58:02;;;;;;;2.90;1.60;;;6.60;98.00;;;;;;5032400;28;20472;-66
2021/10/15 08:00:29;;;;;;;1.30;1.30;;;6.70;98.00;;;;;;5032597;28;20548;-66
2021/10/15 08:02:56;;;;;;;1.20;1.03;;;6.80;98.00;;;;;;5032457;28;20506;-66
2021/10/15 08:05:25;;;;;;;3.10;1.20;;;7.00;98.00;;;;;;5032633;28;20762;-65
2021/10/15 08:07:52;;;;;;;1.40;1.20;;;7.10;98.00;;;;;;5032702;28;20489;-66
2021/10/15 08:10:19;;;;;;;1.30;1.07;;;7.20;98.00;;;;;;5032279;28;20497;-66
2021/10/15 08:12:46;;;;;;;1.30;1.10;;;7.20;98.00;;;;;;5032352;28;20455;-66
2021/10/15 08:15:15;;;;;;;1.20;1.10;;;7.40;98.00;;;;;;5032251;28;20816;-65
2021/10/15 08:17:42;;;;;;;1.40;1.20;;;7.70;98.00;;;;;;5032170;28;20494;-65
2021/10/15 08:20:10;;;;;;;1.50;1.50;;;8.00;98.00;;;;;;5032153;28;20467;-66
2021/10/15 08:22:39;;;;;;;1.30;1.10;;;8.20;98.00;;;;;;5032135;28;20455;-65
2021/10/15 08:25:07;;;;;;;5.63;1.87;;;8.10;98.00;;;;;;5032152;28;20456;-66
2021/10/15 08:27:34;;;;;;;2.50;1.90;;;8.10;98.00;;;;;;5031676;28;20467;-66
2021/10/15 08:30:01;;;;;;;1.80;1.43;;;8.30;98.00;;;;;;5031933;28;20458;-66
2021/10/15 08:32:30;;;;;;;1.20;1.20;;;8.30;98.00;;;;;;5031897;28;20462;-66
2021/10/15 08:34:57;;;;;;;1.70;1.10;;;8.40;98.00;;;;;;5014266;28;20576;-66
2021/10/15 08:37:24;;;;;;;1.33;1.07;;;8.50;98.00;;;;;;5031824;28;20458;-66
2021/10/15 08:39:52;;;;;;;1.20;1.00;;;8.50;98.00;;;;;;5031769;28;20455;-66
2021/10/15 08:42:19;;;;;;;1.20;1.00;;;8.50;98.00;;;;;;5031746;28;20978;-65
2021/10/15 08:44:47;;;;;;;1.20;1.17;;;8.50;98.00;;;;;;5031805;28;20567;-66
2021/10/15 08:47:15;;;;;;;1.20;1.00;;;8.70;98.00;;;;;;5013847;28;20460;-66
2021/10/15 08:49:44;;;;;;;2.30;1.43;;;8.80;98.00;;;;;;5031672;28;20520;-66
2021/10/15 08:52:12;;;;;;;1.50;1.23;;;8.90;98.00;;;;;;5031407;28;20453;-65
2021/10/15 08:54:43;;;;;;;5.43;1.20;;;9.20;98.00;;;;;;5013685;28;20541;-66
2021/10/15 08:57:12;;;;;;;1.47;1.30;;;9.40;98.00;;;;;;5014529;28;20484;-66
2021/10/15 08:59:43;;;;;;;1.20;1.00;;;9.50;98.00;;;;;;5031505;28;20459;-66
2021/10/15 09:02:12;;;;;;;1.47;1.33;;;9.80;98.00;;;;;;5031373;28;20516;-66
2021/10/15 09:04:50;;;;;;;1.30;1.30;;;9.90;98.00;;;;;;5031379;28;20453;-66
2021/10/15 09:07:20;;;;;;;1.30;1.17;;;10.10;98.00;;;;;;5031356;28;20967;-66
2021/10/15 09:09:48;;;;;;;1.20;1.00;;;10.10;98.00;;;;;;5031375;28;20457;-66
2021/10/15 09:12:20;;;;;;;3.50;1.73;;;10.20;98.00;;;;;;5031231;28;20464;-66
2021/10/15 09:14:48;;;;;;;1.97;1.40;;;10.40;98.00;;;;;;5031180;28;20518;-66
2021/10/15 09:17:18;;;;;;;2.03;1.83;;;10.60;98.00;;;;;;5031093;28;20465;-65
2021/10/15 09:19:46;;;;;;;1.30;1.10;;;10.60;98.00;;;;;;5031237;28;20514;-66
2021/10/15 09:22:22;;;;;;;1.73;1.20;;;10.80;98.00;;;;;;5030386;28;20904;-66
2021/10/15 09:24:53;;;;;;;1.93;1.57;;;11.10;98.00;;;;;;5031109;28;20535;-66
2021/10/15 09:27:27;;;;;;;1.60;1.30;;;11.40;98.00;;;;;;5030993;28;20481;-66
2021/10/15 09:29:57;;;;;;;1.50;1.30;;;11.70;98.00;;;;;;5014474;28;20526;-66
2021/10/15 09:32:26;;;;;;;1.20;1.10;;;11.90;98.00;;;;;;5031350;28;20486;-66
2021/10/15 09:34:53;;;;;;;1.30;1.20;;;12.30;98.00;;;;;;5031034;28;20524;-66
2021/10/15 09:37:23;;;;;;;1.57;1.43;;;12.50;98.00;;;;;;5031150;28;20468;-65
2021/10/15 09:39:51;;;;;;;1.97;1.53;;;12.70;98.00;;;;;;5030997;28;20522;-66
2021/10/15 09:42:28;;;;;;;1.40;1.30;;;13.00;98.00;;;;;;5030928;28;20457;-67
2021/10/15 09:45:00;;;;;;;2.03;1.77;;;13.30;98.00;;;;;;5030948;28;20492;-66
2021/10/15 09:47:28;;;;;;;2.53;1.57;;;13.50;98.00;;;;;;5030971;28;20491;-66
2021/10/15 09:50:01;;;;;;;1.87;1.70;;;13.80;98.00;;;;;;5030904;28;20463;-66
2021/10/15 09:52:33;;;;;;;1.60;1.37;;;13.90;98.00;;;;;;5030779;28;20455;-66
2021/10/15 09:55:03;;;;;;;1.77;1.40;;;14.10;98.00;;;;;;5030715;28;20484;-66
2021/10/15 09:57:36;;;;;;;2.40;1.80;;;14.20;98.00;;;;;;5030594;28;20461;-66
2021/10/15 10:00:07;;;;;;;1.20;1.17;;;14.40;98.00;;;;;;5030886;28;20454;-66
2021/10/15 10:02:35;;;;;;;2.43;1.70;;;14.50;98.00;;;;;;5030557;28;20924;-67
2021/10/15 10:05:03;;;;;;;1.30;1.10;;;14.70;98.00;;;;;;5013303;28;21054;-66
2021/10/15 10:07:34;;;;;;;1.30;1.20;;;14.80;98.00;;;;;;5030753;28;20456;-66
2021/10/15 10:10:07;;;;;;;1.50;1.20;;;14.90;98.00;;;;;;5030785;28;20461;-66
2021/10/15 10:12:38;;;;;;;1.83;1.40;;;15.00;98.00;;;;;;5030404;28;20526;-67
2021/10/15 10:15:06;;;;;;;1.60;1.10;;;15.20;98.00;;;;;;5030530;28;20544;-66
2021/10/15 10:17:38;;;;;;;1.93;1.60;;;15.20;98.00;;;;;;5030454;28;20675;-66
2021/10/15 10:20:11;;;;;;;1.50;1.20;;;15.30;98.00;;;;;;5030691;28;20534;-66
2021/10/15 10:22:46;;;;;;;1.53;1.20;;;15.30;98.00;;;;;;5030446;28;20457;-66
2021/10/15 10:25:20;;;;;;;1.50;1.13;;;15.40;98.00;;;;;;5030597;28;20656;-66
2021/10/15 10:27:48;;;;;;;1.40;1.37;;;15.50;98.00;;;;;;5030313;28;21023;-67
2021/10/15 10:30:15;;;;;;;1.53;1.47;;;15.70;98.00;;;;;;5030458;28;20550;-67
2021/10/15 10:33:01;;;;;;;1.40;1.40;;;15.90;98.00;;;;;;5031632;28;21000;-66
2021/10/15 10:35:28;;;;;;;1.30;1.10;;;16.10;98.00;;;;;;5034006;28;20568;-66
2021/10/15 10:38:33;;;;;;;1.40;1.20;;;16.20;98.00;;;;;;5033925;28;20462;-66
2021/10/15 10:41:28;;;;;;;1.63;1.27;;;16.50;98.00;;;;;;5034197;28;20817;-66
2021/10/15 10:44:15;;;;;;;1.20;1.07;;;16.70;94.50;;;;;;5034070;28;20462;-67
2021/10/15 10:47:03;;;;;;;1.20;1.07;;;16.70;94.00;;;;;;5034090;28;20461;-66
2021/10/15 10:49:30;;;;;;;1.30;1.30;;;16.60;95.70;;;;;;5033920;28;20518;-66
2021/10/15 10:52:24;;;;;;;1.40;1.40;;;16.60;95.10;;;;;;5034030;28;20469;-66
2021/10/15 10:54:51;;;;;;;1.40;1.30;;;16.80;98.00;;;;;;4987568;28;20525;-66
2021/10/15 10:57:23;;;;;;;1.40;1.37;;;17.10;97.40;;;;;;5033737;28;20488;-66
2021/10/15 10:59:53;;;;;;;1.40;1.20;;;17.30;94.70;;;;;;5033727;28;20539;-67
2021/10/15 11:02:21;;;;;;;1.40;1.30;;;17.40;94.30;;;;;;5033502;28;20454;-66
2021/10/15 11:04:59;;;;;;;1.50;1.30;;;17.50;92.50;;;;;;5033596;28;20458;-66
2021/10/15 11:07:31;;;;;;;1.20;1.10;;;17.50;92.10;;;;;;5033543;28;20468;-66
2021/10/15 11:10:01;;;;;;;1.50;1.47;;;17.60;91.90;;;;;;5015926;28;20469;-66
2021/10/15 11:12:57;;;;;;;1.40;1.20;;;17.50;90.90;;;;;;5033536;28;21046;-67
2021/10/15 11:15:29;;;;;;;1.60;1.30;;;17.70;91.40;;;;;;5033306;28;20536;-67
2021/10/15 11:17:58;;;;;;;1.30;1.20;;;18.00;92.40;;;;;;5033363;28;20486;-66
2021/10/15 11:20:27;;;;;;;2.03;1.50;;;18.00;91.00;;;;;;5033260;28;20524;-66
2021/10/15 11:22:55;;;;;;;1.80;1.40;;;18.20;92.40;;;;;;5033210;28;20497;-66
2021/10/15 11:25:24;;;;;;;1.20;1.20;;;18.40;90.20;;;;;;5033095;28;20533;-67
2021/10/15 11:27:54;;;;;;;1.70;1.47;;;18.10;90.50;;;;;;5033100;28;20516;-66
2021/10/15 11:30:23;;;;;;;1.50;1.13;;;18.10;90.80;;;;;;5032620;28;20996;-66
2021/10/15 11:32:51;;;;;;;1.47;1.40;;;17.90;91.20;;;;;;5033260;28;21059;-66
2021/10/15 11:35:21;;;;;;;1.87;1.50;;;17.60;91.80;;;;;;5032939;28;20909;-67
2021/10/15 11:37:57;;;;;;;1.73;1.47;;;17.40;91.50;;;;;;5032904;28;20953;-67
2021/10/15 11:40:28;;;;;;;1.90;1.40;;;17.30;91.90;;;;;;5032885;28;20501;-67
2021/10/15 11:43:05;;;;;;;1.60;1.27;;;17.50;92.20;;;;;;5032848;28;20957;-67
2021/10/15 11:45:34;;;;;;;2.13;1.43;;;17.60;93.70;;;;;;5032180;28;20454;-67
2021/10/15 11:48:06;;;;;;;2.13;1.50;;;17.90;93.80;;;;;;5032812;28;20453;-66
2021/10/15 11:50:44;;;;;;;1.90;1.50;;;17.90;91.20;;;;;;5032795;28;20520;-65
2021/10/15 11:53:14;;;;;;;1.70;1.57;;;17.90;93.40;;;;;;5032838;28;20474;-64
2021/10/15 11:55:42;;;;;;;2.90;1.97;;;18.10;91.80;;;;;;5032663;28;20494;-65
2021/10/15 11:58:20;;;;;;;1.27;1.10;;;18.10;93.50;;;;;;5032587;28;20459;-64
2021/10/15 12:01:17;;;;;;;1.83;1.40;;;18.10;92.30;;;;;;5032769;28;20536;-65
2021/10/15 12:03:49;;;;;;;1.40;1.27;;;18.00;93.10;;;;;;5032504;28;20458;-65
2021/10/15 12:06:35;;;;;;;1.20;1.20;;;18.00;91.70;;;;;;5032501;28;20451;-65
2021/10/15 12:09:05;;;;;;;2.47;1.50;;;18.10;91.80;;;;;;5032666;28;20486;-64
2021/10/15 12:11:47;;;;;;;1.30;1.20;;;18.00;92.30;;;;;;5032585;28;20517;-65
2021/10/15 12:14:17;;;;;;;1.40;1.40;;;18.00;92.30;;;;;;5032524;28;20470;-65
2021/10/15 12:16:57;;;;;;;1.83;1.83;;;18.00;92.30;;;;;;5032603;28;20459;-65
2021/10/15 12:19:31;;;;;;;1.77;1.40;;;17.90;93.30;;;;;;5032349;28;20550;-65
2021/10/15 12:22:04;;;;;;;1.40;1.20;;;17.90;91.80;;;;;;5032156;28;20450;-64
2021/10/15 12:24:34;;;;;;;2.03;1.60;;;17.60;92.40;;;;;;5032112;28;20457;-65
2021/10/15 12:27:03;;;;;;;2.07;1.53;;;17.60;92.40;;;;;;5032043;28;20458;-65
2021/10/15 12:29:33;;;;;;;1.20;1.10;;;17.60;93.40;;;;;;5031732;28;20845;-64
2021/10/15 12:32:10;;;;;;;1.53;1.37;;;17.60;92.70;;;;;;5031902;28;20536;-65
2021/10/15 12:35:09;;;;;;;2.00;1.33;;;17.60;92.90;;;;;;5031912;28;20589;-65
2021/10/15 12:37:46;;;;;;;2.20;1.80;;;17.50;94.10;;;;;;5031813;28;21064;-65
2021/10/15 12:40:20;;;;;;;1.40;1.30;;;17.50;93.30;;;;;;5031838;28;20462;-65
2021/10/15 12:42:50;;;;;;;1.70;1.40;;;17.40;94.10;;;;;;5031804;28;20553;-64
2021/10/15 12:45:18;;;;;;;2.13;1.43;;;17.40;94.40;;;;;;5031824;28;20867;-65
2021/10/15 12:47:56;;;;;;;1.20;1.10;;;17.50;93.50;;;;;;5031529;28;20455;-65
2021/10/15 12:50:26;;;;;;;1.30;1.20;;;17.70;92.50;;;;;;5031532;28;20457;-64
2021/10/15 12:52:53;;;;;;;1.40;1.37;;;17.70;93.30;;;;;;5031309;28;20556;-65
2021/10/15 12:55:22;;;;;;;1.50;1.27;;;17.80;91.90;;;;;;5030838;28;20529;-65
2021/10/15 12:57:51;;;;;;;1.40;1.30;;;17.80;92.70;;;;;;5031061;28;20952;-65
2021/10/15 13:00:20;;;;;;;1.20;1.10;;;17.80;94.10;;;;;;5031514;28;20502;-65
2021/10/15 13:02:48;;;;;;;2.57;1.50;;;17.80;93.70;;;;;;5031509;28;20466;-64
2021/10/15 13:05:15;;;;;;;1.80;1.30;;;17.80;93.90;;;;;;5031450;28;20548;-65
2021/10/15 13:07:44;;;;;;;1.50;1.30;;;17.70;93.30;;;;;;5031428;28;20461;-65
2021/10/15 13:10:16;;;;;;;1.27;1.23;;;17.70;94.30;;;;;;5031670;28;20466;-65
2021/10/15 13:12:44;;;;;;;1.30;1.27;;;17.90;93.60;;;;;;5031164;28;20493;-65